createdAt,value
2022-08-07T00:02:36.528Z,3.20
2022-08-07T00:05:06.234Z,3.63
2022-08-07T00:07:40.169Z,2.77
2022-08-07T00:10:26.274Z,3.03
2022-08-07T00:13:01.004Z,3.97
2022-08-07T00:15:38.663Z,3.00
2022-08-07T00:18:23.135Z,3.97
2022-08-07T00:20:54.676Z,3.73
2022-08-07T00:23:24.018Z,3.20
2022-08-07T00:25:59.275Z,4.30
2022-08-07T00:28:34.115Z,4.10
2022-08-07T00:31:12.423Z,3.87
2022-08-07T00:33:42.743Z,4.67
2022-08-07T00:36:16.825Z,3.97
2022-08-07T00:38:45.886Z,3.93
2022-08-07T00:41:16.075Z,4.00
2022-08-07T00:44:02.025Z,6.50
2022-08-07T00:46:32.930Z,4.93
2022-08-07T00:49:03.600Z,4.70
2022-08-07T00:51:57.054Z,5.20
2022-08-07T00:54:22.564Z,5.30
2022-08-07T00:56:53.570Z,4.50
2022-08-07T00:59:35.544Z,4.90
2022-08-07T01:02:09.014Z,4.60
2022-08-07T01:04:49.251Z,5.07
2022-08-07T01:07:18.290Z,2.90
2022-08-07T01:10:06.803Z,4.27
2022-08-07T01:12:39.065Z,3.00
2022-08-07T01:15:12.006Z,3.80
2022-08-07T01:17:46.688Z,3.50
2022-08-07T01:20:17.448Z,3.07
2022-08-07T01:23:00.633Z,3.10
2022-08-07T01:25:55.766Z,3.83
2022-08-07T01:28:26.490Z,2.67
2022-08-07T01:31:02.864Z,2.70
2022-08-07T01:33:53.718Z,2.70
2022-08-07T01:36:33.479Z,3.40
2022-08-07T01:39:11.975Z,2.90
2022-08-07T01:42:07.420Z,4.07
2022-08-07T01:44:38.815Z,4.30
2022-08-07T01:47:14.816Z,4.53
2022-08-07T01:49:57.596Z,3.37
2022-08-07T01:52:35.642Z,3.77
2022-08-07T01:55:09.680Z,4.97
2022-08-07T01:58:05.653Z,3.80
2022-08-07T02:01:10.307Z,3.27
2022-08-07T02:03:52.602Z,4.00
2022-08-07T02:06:31.763Z,4.27
2022-08-07T02:09:11.719Z,4.17
2022-08-07T02:12:17.830Z,4.50
2022-08-07T02:14:57.956Z,3.40
2022-08-07T02:17:35.245Z,4.30
2022-08-07T02:20:17.541Z,2.93
2022-08-07T02:22:54.820Z,3.00
2022-08-07T02:26:10.205Z,3.40
2022-08-07T02:28:25.298Z,3.63
2022-08-07T02:31:10.069Z,4.13
2022-08-07T02:34:01.458Z,3.70
2022-08-07T02:36:33.800Z,3.30
2022-08-07T02:39:17.517Z,3.50
2022-08-07T02:42:10.392Z,3.43
2022-08-07T02:44:52.110Z,2.70
2022-08-07T02:47:27.440Z,3.73
2022-08-07T02:50:14.642Z,3.37
2022-08-07T02:52:54.891Z,2.60
2022-08-07T02:56:02.522Z,3.57
2022-08-07T02:58:33.429Z,2.27
2022-08-07T03:01:18.470Z,3.30
2022-08-07T03:03:51.034Z,2.77
2022-08-07T03:06:34.577Z,2.33
2022-08-07T03:09:06.352Z,3.50
2022-08-07T03:11:39.144Z,3.00
2022-08-07T03:14:23.924Z,2.93
2022-08-07T03:16:56.408Z,4.00
2022-08-07T03:19:29.125Z,3.00
2022-08-07T03:22:18.837Z,4.47
2022-08-07T03:24:50.105Z,2.83
2022-08-07T03:27:30.366Z,2.87
2022-08-07T03:30:13.352Z,3.60
2022-08-07T03:32:58.219Z,2.63
2022-08-07T03:35:43.937Z,2.80
2022-08-07T03:38:29.857Z,2.20
2022-08-07T03:41:04.327Z,3.00
2022-08-07T03:43:36.167Z,3.20
2022-08-07T03:46:10.371Z,3.10
2022-08-07T03:49:02.569Z,3.57
2022-08-07T03:51:47.272Z,2.60
2022-08-07T03:54:35.207Z,3.60
2022-08-07T03:58:33.100Z,3.20
2022-08-07T04:00:04.126Z,3.50
2022-08-07T04:02:47.174Z,2.87
2022-08-07T04:05:39.724Z,3.40
2022-08-07T04:08:18.426Z,3.23
2022-08-07T04:10:54.600Z,3.90
2022-08-07T04:14:10.443Z,2.97
2022-08-07T04:16:33.633Z,2.80
2022-08-07T04:19:14.811Z,2.93
2022-08-07T04:21:59.084Z,2.67
2022-08-07T04:24:39.066Z,3.13
2022-08-07T04:27:15.095Z,2.77
2022-08-07T04:30:01.460Z,2.50
2022-08-07T04:32:58.409Z,3.00
2022-08-07T04:35:35.064Z,2.70
2022-08-07T04:38:13.144Z,2.93
2022-08-07T04:40:51.752Z,2.80
2022-08-07T04:44:12.791Z,2.80
2022-08-07T04:47:08.093Z,3.10
2022-08-07T04:50:04.466Z,3.87
2022-08-07T04:53:00.041Z,3.13
2022-08-07T04:58:07.851Z,3.20
2022-08-07T05:02:03.558Z,3.00
2022-08-07T05:04:50.103Z,2.77
2022-08-07T05:07:36.614Z,3.10
2022-08-07T05:10:15.470Z,3.23
2022-08-07T05:13:01.461Z,2.63
2022-08-07T05:15:54.134Z,3.40
2022-08-07T05:18:30.768Z,3.00
2022-08-07T05:21:07.021Z,2.60
2022-08-07T05:23:46.250Z,2.43
2022-08-07T05:26:23.977Z,3.20
2022-08-07T05:29:10.877Z,2.90
2022-08-07T05:31:51.155Z,2.33
2022-08-07T05:34:27.664Z,2.70
2022-08-07T05:36:59.052Z,3.17
2022-08-07T05:40:13.581Z,2.60
2022-08-07T05:42:34.217Z,2.80
2022-08-07T05:45:26.147Z,2.60
2022-08-07T05:48:05.907Z,2.80
2022-08-07T05:50:43.613Z,2.70
2022-08-07T05:54:12.475Z,2.63
2022-08-07T05:56:07.555Z,2.90
2022-08-07T05:58:52.417Z,2.70
2022-08-07T06:01:26.793Z,3.00
2022-08-07T06:04:08.509Z,2.37
2022-08-07T06:06:46.277Z,2.20
2022-08-07T06:09:18.659Z,2.83
2022-08-07T06:11:51.203Z,2.37
2022-08-07T06:14:28.706Z,2.60
2022-08-07T06:17:07.043Z,2.40
2022-08-07T06:19:47.924Z,2.53
2022-08-07T06:22:40.261Z,1.77
2022-08-07T06:25:24.638Z,1.93
2022-08-07T06:28:05.484Z,2.77
2022-08-07T06:30:38.056Z,1.63
2022-08-07T06:33:22.716Z,1.90
2022-08-07T06:36:12.158Z,1.50
2022-08-07T06:38:58.736Z,1.87
2022-08-07T06:42:01.655Z,1.53
2022-08-07T06:45:18.245Z,2.10
2022-08-07T06:48:03.908Z,1.73
2022-08-07T06:50:47.975Z,2.40
2022-08-07T06:55:29.000Z,1.60
2022-08-07T06:56:17.863Z,2.13
2022-08-07T07:00:12.144Z,1.90
2022-08-07T07:01:48.938Z,2.63
2022-08-07T07:04:27.949Z,1.80
2022-08-07T07:07:10.632Z,2.30
2022-08-07T07:09:50.802Z,1.70
2022-08-07T07:12:36.699Z,2.90
2022-08-07T07:15:24.079Z,3.00
2022-08-07T07:18:10.423Z,1.60
2022-08-07T07:20:48.905Z,1.60
2022-08-07T07:24:09.879Z,1.50
2022-08-07T07:26:33.921Z,2.60
2022-08-07T07:29:28.611Z,1.57
2022-08-07T07:32:51.904Z,2.23
2022-08-07T07:35:33.504Z,1.90
2022-08-07T07:38:36.086Z,2.30
2022-08-07T07:41:13.579Z,2.30
2022-08-07T07:44:17.435Z,1.80
2022-08-07T07:46:54.493Z,1.67
2022-08-07T07:50:36.255Z,2.37
2022-08-07T07:52:25.799Z,2.03
2022-08-07T07:54:58.960Z,1.67
2022-08-07T07:57:51.683Z,1.77
2022-08-07T08:00:28.921Z,2.00
2022-08-07T08:03:08.285Z,1.93
2022-08-07T08:05:55.000Z,1.20
2022-08-07T08:08:34.281Z,1.87
2022-08-07T08:11:13.457Z,1.47
2022-08-07T08:13:54.382Z,3.23
2022-08-07T08:16:35.732Z,1.77
2022-08-07T08:19:09.644Z,2.90
2022-08-07T08:22:10.524Z,2.10
2022-08-07T08:25:18.191Z,1.57
2022-08-07T08:27:56.396Z,1.57
2022-08-07T08:30:30.424Z,1.90
2022-08-07T08:33:04.587Z,1.80
2022-08-07T08:35:39.150Z,1.30
2022-08-07T08:38:20.204Z,1.43
2022-08-07T08:40:58.044Z,1.50
2022-08-07T08:43:58.816Z,1.30
2022-08-07T08:46:44.798Z,1.47
2022-08-07T08:49:33.173Z,2.20
2022-08-07T08:52:16.666Z,2.27
2022-08-07T08:55:01.185Z,1.57
2022-08-07T08:57:45.844Z,2.17
2022-08-07T09:00:18.789Z,1.67
2022-08-07T09:02:58.176Z,1.47
2022-08-07T09:05:47.879Z,2.20
2022-08-07T09:08:42.738Z,2.27
2022-08-07T09:11:25.011Z,1.53
2022-08-07T09:14:17.900Z,2.00
2022-08-07T09:17:14.159Z,2.00
2022-08-07T09:20:03.274Z,1.73
2022-08-07T09:24:54.825Z,1.50
2022-08-07T09:26:20.658Z,1.80
2022-08-07T09:30:05.236Z,2.27
2022-08-07T09:32:04.010Z,1.73
2022-08-07T09:36:00.931Z,1.80
2022-08-07T09:38:10.471Z,1.77
2022-08-07T09:41:01.721Z,1.70
2022-08-07T09:44:06.287Z,1.20
2022-08-07T09:47:51.888Z,2.10
2022-08-07T09:50:18.620Z,1.33
2022-08-07T09:52:54.293Z,1.70
2022-08-07T09:56:02.722Z,1.77
2022-08-07T09:58:58.886Z,1.73
2022-08-07T10:01:53.321Z,1.10
2022-08-07T10:04:53.476Z,1.87
2022-08-07T10:07:53.775Z,1.60
2022-08-07T10:14:01.538Z,1.80
2022-08-07T10:17:14.123Z,1.40
2022-08-07T10:20:13.031Z,1.50
2022-08-07T10:24:05.121Z,1.60
2022-08-07T10:27:03.202Z,1.40
2022-08-07T10:30:07.250Z,1.30
2022-08-07T10:33:13.053Z,1.80
2022-08-07T10:36:12.962Z,1.63
2022-08-07T10:38:59.250Z,1.53
2022-08-07T10:41:53.052Z,1.30
2022-08-07T10:44:39.270Z,1.70
2022-08-07T10:47:53.176Z,1.47
2022-08-07T10:50:32.567Z,1.30
2022-08-07T10:53:12.210Z,1.80
2022-08-07T10:56:04.995Z,1.60
2022-08-07T10:58:59.654Z,1.40
2022-08-07T11:01:51.587Z,1.70
2022-08-07T11:04:59.102Z,1.20
2022-08-07T11:07:58.442Z,1.73
2022-08-07T11:10:40.554Z,1.60
2022-08-07T11:13:42.667Z,1.67
2022-08-07T11:16:20.686Z,2.10
2022-08-07T11:19:08.420Z,2.23
2022-08-07T11:21:52.379Z,1.93
2022-08-07T11:24:35.275Z,1.60
2022-08-07T11:27:14.628Z,1.50
2022-08-07T11:30:17.901Z,3.40
2022-08-07T11:33:02.541Z,2.07
2022-08-07T11:35:59.559Z,1.80
2022-08-07T11:38:41.547Z,1.70
2022-08-07T11:41:43.566Z,2.50
2022-08-07T11:44:29.654Z,2.20
2022-08-07T11:47:14.890Z,2.37
2022-08-07T11:50:32.671Z,2.20
2022-08-07T11:53:21.924Z,1.70
2022-08-07T11:56:27.518Z,2.17
2022-08-07T12:00:11.298Z,1.70
2022-08-07T12:02:59.873Z,2.67
2022-08-07T12:05:48.908Z,1.90
2022-08-07T12:08:31.855Z,2.10
2022-08-07T12:11:20.981Z,1.90
2022-08-07T12:14:01.771Z,1.70
2022-08-07T12:16:36.719Z,2.10
2022-08-07T12:19:21.817Z,1.53
2022-08-07T12:22:39.045Z,1.70
2022-08-07T12:26:03.159Z,1.70
2022-08-07T12:28:24.022Z,2.20
2022-08-07T12:31:09.295Z,3.53
2022-08-07T12:33:56.014Z,1.80
2022-08-07T12:36:32.999Z,1.67
2022-08-07T12:39:09.447Z,2.20
2022-08-07T12:41:57.468Z,2.20
2022-08-07T12:44:30.033Z,1.93
2022-08-07T12:47:21.375Z,1.67
2022-08-07T12:50:38.420Z,1.60
2022-08-07T12:53:18.203Z,1.30
2022-08-07T12:56:02.605Z,2.13
2022-08-07T12:58:39.636Z,1.70
2022-08-07T13:01:28.044Z,1.80
2022-08-07T13:04:32.530Z,4.93
2022-08-07T13:08:14.055Z,2.10
2022-08-07T13:11:07.490Z,1.60
2022-08-07T13:13:57.665Z,2.77
2022-08-07T13:16:36.967Z,2.73
2022-08-07T13:19:45.798Z,2.80
2022-08-07T13:22:27.728Z,5.50
2022-08-07T13:25:05.917Z,2.30
2022-08-07T13:28:14.551Z,8.70
2022-08-07T13:30:39.994Z,5.20
2022-08-07T13:34:31.257Z,1.47
2022-08-07T13:36:22.377Z,1.80
2022-08-07T13:39:12.890Z,2.27
2022-08-07T13:41:55.086Z,2.77
2022-08-07T13:44:34.585Z,3.53
2022-08-07T13:47:10.744Z,2.50
2022-08-07T13:50:34.654Z,7.37
2022-08-07T13:52:43.156Z,1.90
2022-08-07T13:55:26.586Z,1.40
2022-08-07T13:58:27.962Z,1.60
2022-08-07T14:01:10.044Z,1.57
2022-08-07T14:04:07.730Z,1.60
2022-08-07T14:06:36.694Z,1.40
2022-08-07T14:09:16.971Z,1.20
2022-08-07T14:12:10.466Z,1.63
2022-08-07T14:14:48.221Z,1.60
2022-08-07T14:18:12.563Z,1.50
2022-08-07T14:20:43.775Z,1.63
2022-08-07T14:23:59.082Z,1.83
2022-08-07T14:26:30.060Z,1.47
2022-08-07T14:32:00.234Z,1.50
2022-08-07T14:34:33.130Z,1.50
2022-08-07T14:37:05.225Z,1.50
2022-08-07T14:40:15.804Z,1.13
2022-08-07T14:43:01.510Z,1.97
2022-08-07T14:45:46.859Z,1.57
2022-08-07T14:48:27.566Z,1.80
2022-08-07T14:51:00.925Z,1.57
2022-08-07T14:54:08.849Z,1.80
2022-08-07T14:56:32.298Z,1.60
2022-08-07T14:59:13.820Z,1.60
2022-08-07T15:01:59.466Z,1.17
2022-08-07T15:04:30.469Z,1.30
2022-08-07T15:07:03.005Z,1.57
2022-08-07T15:12:45.747Z,2.00
2022-08-07T15:15:38.581Z,1.93
2022-08-07T15:18:33.935Z,1.70
2022-08-07T15:25:14.521Z,1.77
2022-08-07T15:27:11.351Z,1.23
2022-08-07T15:30:08.743Z,1.50
2022-08-07T15:36:01.582Z,1.93
2022-08-07T15:38:30.986Z,2.30
2022-08-07T15:42:42.547Z,1.83
2022-08-07T15:44:15.493Z,1.80
2022-08-07T15:46:52.605Z,1.70
2022-08-07T15:50:04.321Z,1.50
2022-08-07T15:52:30.744Z,1.67
2022-08-07T15:55:09.022Z,1.60
2022-08-07T15:57:49.065Z,1.90
2022-08-07T16:00:33.844Z,2.07
2022-08-07T16:03:10.566Z,1.43
2022-08-07T16:05:54.169Z,1.87
2022-08-07T16:08:37.858Z,1.60
2022-08-07T16:11:39.957Z,1.93
2022-08-07T16:14:19.341Z,1.40
2022-08-07T16:17:14.860Z,2.97
2022-08-07T16:20:33.929Z,2.00
2022-08-07T16:23:25.136Z,1.50
2022-08-07T16:26:30.769Z,1.40
2022-08-07T16:30:09.719Z,1.37
2022-08-07T16:32:32.888Z,2.00
2022-08-07T16:35:56.759Z,1.20
2022-08-07T16:39:01.795Z,1.93
2022-08-07T16:42:26.636Z,1.90
2022-08-07T16:50:27.147Z,1.50
2022-08-07T16:52:51.908Z,1.80
2022-08-07T16:55:08.447Z,1.60
2022-08-07T16:58:03.951Z,1.57
2022-08-07T17:00:43.034Z,1.60
2022-08-07T17:03:57.989Z,1.83
2022-08-07T17:07:03.957Z,2.20
2022-08-07T17:10:06.251Z,2.30
2022-08-07T17:12:47.004Z,1.20
2022-08-07T17:15:44.231Z,1.57
2022-08-07T17:18:28.992Z,1.40
2022-08-07T17:20:58.521Z,1.80
2022-08-07T17:23:44.609Z,2.03
2022-08-07T17:26:29.962Z,2.10
2022-08-07T17:30:12.743Z,1.70
2022-08-07T17:32:30.276Z,2.30
2022-08-07T17:35:50.227Z,1.83
2022-08-07T17:38:33.361Z,2.07
2022-08-07T17:42:04.682Z,1.77
2022-08-07T17:44:34.094Z,1.47
2022-08-07T17:47:38.267Z,1.60
2022-08-07T17:50:19.551Z,2.13
2022-08-07T17:53:00.524Z,1.77
2022-08-07T17:56:00.660Z,1.37
2022-08-07T17:58:46.311Z,1.67
2022-08-07T18:01:36.695Z,1.87
2022-08-07T18:04:24.649Z,2.00
2022-08-07T18:07:28.706Z,1.97
2022-08-07T18:10:32.565Z,1.90
2022-08-07T18:13:40.841Z,2.23
2022-08-07T18:16:32.795Z,1.83
2022-08-07T18:21:10.553Z,2.27
2022-08-07T18:22:29.158Z,1.97
2022-08-07T18:25:19.087Z,2.60
2022-08-07T18:28:34.229Z,1.90
2022-08-07T18:31:11.747Z,2.60
2022-08-07T18:34:40.776Z,2.27
2022-08-07T18:38:55.490Z,2.57
2022-08-07T18:41:08.163Z,2.20
2022-08-07T18:43:57.522Z,1.63
2022-08-07T18:47:04.430Z,2.87
2022-08-07T18:50:30.516Z,2.70
2022-08-07T18:53:12.855Z,1.90
2022-08-07T18:56:13.195Z,1.83
2022-08-07T18:59:46.860Z,2.50
2022-08-07T19:02:36.052Z,2.27
2022-08-07T19:05:22.028Z,2.00
2022-08-07T19:08:05.384Z,2.27
2022-08-07T19:10:51.878Z,2.23
2022-08-07T19:13:28.692Z,2.10
2022-08-07T19:16:43.206Z,2.57
2022-08-07T19:19:04.917Z,2.83
2022-08-07T19:21:56.926Z,2.47
2022-08-07T19:24:44.421Z,4.60
2022-08-07T19:28:56.654Z,4.33
2022-08-07T19:31:00.693Z,2.20
2022-08-07T19:33:08.293Z,2.20
2022-08-07T19:35:45.078Z,2.57
2022-08-07T19:38:21.075Z,2.63
2022-08-07T19:40:58.086Z,2.50
2022-08-07T19:43:43.483Z,2.67
2022-08-07T19:46:26.809Z,2.27
2022-08-07T19:49:05.828Z,2.80
2022-08-07T19:51:52.454Z,2.90
2022-08-07T19:54:33.178Z,1.73
2022-08-07T19:58:04.125Z,2.87
2022-08-07T20:00:00.927Z,3.50
2022-08-07T20:02:39.344Z,3.37
2022-08-07T20:05:13.908Z,3.40
2022-08-07T20:07:50.762Z,2.73
2022-08-07T20:10:36.245Z,2.50
2022-08-07T20:13:27.187Z,2.90
2022-08-07T20:16:04.903Z,3.80
2022-08-07T20:18:36.452Z,2.50
2022-08-07T20:21:21.593Z,2.90
2022-08-07T20:24:00.477Z,2.83
2022-08-07T20:26:44.843Z,2.93
2022-08-07T20:29:46.743Z,4.20
2022-08-07T20:32:25.548Z,2.47
2022-08-07T20:34:59.796Z,3.27
2022-08-07T20:37:46.877Z,3.20
2022-08-07T20:40:31.555Z,3.27
2022-08-07T20:43:14.659Z,3.00
2022-08-07T20:46:25.795Z,3.37
2022-08-07T20:49:53.915Z,4.07
2022-08-07T20:51:50.518Z,3.60
2022-08-07T20:54:29.801Z,2.77
2022-08-07T20:57:08.286Z,3.40
2022-08-07T21:00:07.274Z,3.30
2022-08-07T21:03:01.428Z,3.80
2022-08-07T21:05:51.500Z,3.47
2022-08-07T21:08:37.247Z,3.17
2022-08-07T21:11:14.571Z,2.83
2022-08-07T21:14:20.321Z,3.07
2022-08-07T21:17:06.510Z,3.43
2022-08-07T21:20:00.636Z,3.67
2022-08-07T21:22:44.699Z,3.73
2022-08-07T21:25:24.164Z,3.53
2022-08-07T21:28:18.841Z,3.10
2022-08-07T21:31:15.227Z,2.80
2022-08-07T21:33:59.208Z,2.97
2022-08-07T21:36:50.265Z,3.70
2022-08-07T21:39:45.935Z,3.07
2022-08-07T21:42:42.721Z,3.10
2022-08-07T21:46:08.049Z,2.47
2022-08-07T21:48:32.472Z,2.70
2022-08-07T21:51:24.923Z,3.30
2022-08-07T21:54:13.854Z,2.67
2022-08-07T21:57:31.340Z,3.50
2022-08-07T22:00:29.534Z,2.83
2022-08-07T22:03:30.591Z,3.20
2022-08-07T22:06:30.987Z,3.23
2022-08-07T22:09:11.468Z,3.20
2022-08-07T22:12:04.903Z,3.40
2022-08-07T22:14:59.483Z,5.00
2022-08-07T22:17:42.072Z,4.17
2022-08-07T22:20:24.731Z,3.00
2022-08-07T22:23:09.232Z,3.27
2022-08-07T22:26:05.848Z,3.70
2022-08-07T22:28:53.187Z,2.20
2022-08-07T22:31:59.129Z,2.90
2022-08-07T22:34:35.756Z,4.60
2022-08-07T22:37:19.529Z,3.40
2022-08-07T22:40:04.896Z,3.10
2022-08-07T22:42:39.124Z,3.50
2022-08-07T22:46:04.331Z,3.70
2022-08-07T22:48:31.811Z,3.17
2022-08-07T22:51:31.947Z,2.97
2022-08-07T22:54:34.848Z,2.90
2022-08-07T22:57:41.124Z,3.43
2022-08-07T23:00:21.398Z,2.70
2022-08-07T23:03:58.680Z,3.40
2022-08-07T23:07:28.433Z,4.70
2022-08-07T23:10:37.404Z,3.90
2022-08-07T23:13:48.833Z,2.70
2022-08-07T23:16:55.276Z,3.87
2022-08-07T23:20:04.376Z,3.00
2022-08-07T23:22:49.401Z,2.43
2022-08-07T23:25:36.725Z,3.97
2022-08-07T23:28:29.267Z,3.17
2022-08-07T23:32:49.272Z,2.53
2022-08-07T23:35:08.800Z,3.17
2022-08-07T23:38:11.685Z,2.67
2022-08-07T23:40:54.519Z,3.03
2022-08-07T23:44:00.597Z,3.17
2022-08-07T23:46:58.646Z,3.20
2022-08-07T23:50:16.050Z,3.13
2022-08-07T23:53:06.777Z,3.10
2022-08-07T23:56:00.659Z,2.60
2022-08-07T23:58:50.015Z,3.50
